Time;durP1;ratioP1;P1;durP2;ratioP2;P2;SDS_P1;SDS_P2;PMS_P1;PMS_P2;Temp;Humidity;BMP_temperature;BMP_pressure;BME280_temperature;BME280_humidity;BME280_pressure;Samples;Min_cycle;Max_cycle;Signal;HPM_P1;HPM_P2
2022/02/15 00:01:46;;;;;;;29.93;15.83;;;2.30;92.20;;;;;;5005718;28;20227;-72
2022/02/15 00:04:13;;;;;;;30.57;17.07;;;2.30;92.30;;;;;;5010403;28;20188;-72
2022/02/15 00:06:39;;;;;;;32.80;17.37;;;2.30;92.20;;;;;;5003515;28;20210;-72
2022/02/15 00:09:06;;;;;;;35.23;16.87;;;2.30;92.10;;;;;;5007339;28;20250;-72
2022/02/15 00:11:32;;;;;;;32.93;17.57;;;2.20;91.90;;;;;;5012092;28;20177;-72
2022/02/15 00:13:58;;;;;;;28.20;15.63;;;2.20;91.90;;;;;;5017255;28;20180;-73
2022/02/15 00:16:24;;;;;;;32.13;16.73;;;2.20;91.90;;;;;;5012810;28;20185;-72
2022/02/15 00:18:50;;;;;;;37.03;17.47;;;2.20;91.90;;;;;;5010718;28;20181;-71
2022/02/15 00:21:16;;;;;;;32.63;15.33;;;2.20;92.10;;;;;;5008245;28;20266;-72
2022/02/15 00:23:41;;;;;;;32.80;15.60;;;2.10;92.10;;;;;;5010417;28;20216;-72
2022/02/15 00:26:07;;;;;;;32.33;15.93;;;2.10;92.20;;;;;;5011773;28;20184;-72
2022/02/15 00:28:33;;;;;;;38.87;17.47;;;2.10;92.10;;;;;;5008580;28;20263;-72
2022/02/15 00:30:59;;;;;;;28.10;14.90;;;2.10;92.20;;;;;;5011230;28;20188;-71
2022/02/15 00:33:24;;;;;;;31.03;15.70;;;2.10;92.20;;;;;;5010336;28;20684;-72
2022/02/15 00:35:50;;;;;;;36.47;15.83;;;2.00;92.40;;;;;;5000623;28;20188;-72
2022/02/15 00:38:16;;;;;;;34.70;15.80;;;2.00;92.30;;;;;;5013285;28;20224;-73
2022/02/15 00:40:41;;;;;;;32.30;15.60;;;2.00;92.20;;;;;;5012585;28;20599;-73
2022/02/15 00:43:07;;;;;;;26.43;13.83;;;2.00;92.20;;;;;;5014087;28;20329;-72
2022/02/15 00:45:33;;;;;;;23.40;12.97;;;2.00;92.20;;;;;;5014398;28;20181;-72
2022/02/15 00:47:59;;;;;;;23.17;13.00;;;2.00;92.20;;;;;;5007986;28;20185;-72
2022/02/15 00:50:24;;;;;;;34.40;15.53;;;2.00;92.20;;;;;;5006507;28;20933;-71
2022/02/15 00:52:50;;;;;;;19.73;12.43;;;2.00;92.50;;;;;;5005040;28;20189;-71
2022/02/15 00:55:16;;;;;;;20.27;12.30;;;2.00;92.60;;;;;;5010914;28;20181;-72
2022/02/15 00:57:43;;;;;;;14.57;10.40;;;2.00;92.50;;;;;;5007213;28;20793;-71
2022/02/15 01:00:12;;;;;;;18.90;11.70;;;2.00;92.30;;;;;;5010622;28;20188;-72
2022/02/15 01:02:37;;;;;;;17.07;11.97;;;2.00;92.20;;;;;;5010023;28;20209;-73
2022/02/15 01:05:04;;;;;;;22.83;12.63;;;2.00;92.20;;;;;;5007945;28;20243;-73
2022/02/15 01:07:31;;;;;;;27.70;14.80;;;2.00;92.20;;;;;;5006326;28;20180;-73
2022/02/15 01:09:57;;;;;;;29.23;13.23;;;1.90;92.20;;;;;;5008499;28;20192;-73
2022/02/15 01:12:23;;;;;;;21.30;12.40;;;1.90;92.10;;;;;;5011854;28;20193;-72
2022/02/15 01:14:49;;;;;;;27.73;13.80;;;1.90;92.10;;;;;;5011381;28;20728;-72
2022/02/15 01:17:15;;;;;;;21.13;12.17;;;1.90;92.10;;;;;;5005691;28;21062;-72
2022/02/15 01:19:41;;;;;;;26.20;12.73;;;1.90;92.10;;;;;;5007105;28;20181;-71
2022/02/15 01:22:06;;;;;;;21.73;12.90;;;1.80;92.00;;;;;;5011017;28;20296;-72
2022/02/15 01:24:32;;;;;;;22.40;12.03;;;1.80;92.00;;;;;;5007388;28;20215;-71
2022/02/15 01:26:58;;;;;;;25.37;12.30;;;1.80;92.00;;;;;;5004528;28;20181;-72
2022/02/15 01:29:25;;;;;;;26.37;12.73;;;1.80;92.00;;;;;;5011997;28;20189;-71
2022/02/15 01:31:51;;;;;;;30.77;12.37;;;1.80;92.00;;;;;;5000394;28;20185;-72
2022/02/15 01:34:17;;;;;;;19.53;10.40;;;1.80;92.10;;;;;;5014194;28;20184;-74
2022/02/15 01:36:43;;;;;;;18.33;10.77;;;1.70;92.00;;;;;;5002728;28;20212;-73
2022/02/15 01:39:10;;;;;;;19.13;10.57;;;1.70;92.10;;;;;;5005659;28;20676;-73
2022/02/15 01:41:36;;;;;;;16.20;9.33;;;1.70;92.10;;;;;;5002922;28;20745;-72
2022/02/15 01:44:02;;;;;;;17.43;9.50;;;1.70;92.00;;;;;;5004503;28;20185;-72
2022/02/15 01:46:28;;;;;;;20.43;10.97;;;1.70;91.90;;;;;;5004235;28;20577;-73
2022/02/15 01:48:54;;;;;;;19.40;10.20;;;1.70;91.90;;;;;;5008385;28;20188;-72
2022/02/15 01:51:20;;;;;;;16.87;9.97;;;1.70;91.90;;;;;;5002066;28;20192;-72
2022/02/15 01:53:45;;;;;;;17.87;9.40;;;1.70;92.10;;;;;;5007733;28;20185;-72
2022/02/15 01:56:13;;;;;;;18.20;9.63;;;1.60;92.20;;;;;;5007575;28;20188;-72
2022/02/15 01:58:40;;;;;;;18.03;8.53;;;1.70;92.10;;;;;;5013481;28;20234;-71
2022/02/15 02:01:06;;;;;;;13.53;8.40;;;1.60;92.30;;;;;;5011656;28;20286;-72
2022/02/15 02:03:32;;;;;;;14.27;8.50;;;1.60;92.30;;;;;;5012785;28;20240;-71
2022/02/15 02:05:58;;;;;;;13.70;8.27;;;1.60;92.30;;;;;;5012920;28;20181;-72
2022/02/15 02:08:26;;;;;;;16.57;9.23;;;1.60;92.20;;;;;;5010551;28;20173;-73
2022/02/15 02:10:52;;;;;;;12.70;7.73;;;1.60;92.30;;;;;;5012982;28;20678;-73
2022/02/15 02:13:18;;;;;;;10.40;7.70;;;1.60;92.30;;;;;;5018351;28;20181;-72
2022/02/15 02:15:45;;;;;;;11.43;7.63;;;1.60;92.30;;;;;;5012916;28;20671;-71
2022/02/15 02:18:11;;;;;;;12.57;8.00;;;1.50;92.30;;;;;;5020074;28;23274;-73
2022/02/15 02:20:38;;;;;;;17.93;7.90;;;1.50;92.50;;;;;;5011138;28;20189;-72
2022/02/15 02:23:03;;;;;;;12.87;7.63;;;1.50;92.40;;;;;;5013510;28;20802;-71
2022/02/15 02:25:29;;;;;;;9.37;6.77;;;1.50;92.70;;;;;;5018596;28;20181;-72
2022/02/15 02:27:58;;;;;;;12.57;8.20;;;1.50;93.10;;;;;;5013416;28;20188;-72
2022/02/15 02:30:24;;;;;;;16.80;8.83;;;1.40;93.00;;;;;;5008280;28;20184;-73
2022/02/15 02:32:50;;;;;;;20.37;9.90;;;1.40;93.00;;;;;;5013076;28;20670;-72
2022/02/15 02:35:16;;;;;;;13.50;8.20;;;1.40;93.30;;;;;;5015857;28;20658;-71
2022/02/15 02:37:41;;;;;;;16.57;8.73;;;1.40;93.40;;;;;;5011310;28;20188;-72
2022/02/15 02:40:09;;;;;;;18.20;9.50;;;1.40;93.60;;;;;;5013945;28;20193;-73
2022/02/15 02:42:38;;;;;;;16.43;9.70;;;1.40;93.60;;;;;;5013179;28;20426;-73
2022/02/15 02:45:07;;;;;;;18.70;10.17;;;1.40;93.90;;;;;;5013570;28;20189;-73
2022/02/15 02:47:33;;;;;;;16.90;9.07;;;1.40;94.60;;;;;;5011399;28;20284;-72
2022/02/15 02:49:59;;;;;;;16.47;9.37;;;1.40;94.60;;;;;;5014960;28;20259;-72
2022/02/15 02:52:25;;;;;;;17.03;10.47;;;1.40;94.60;;;;;;5011265;28;20191;-71
2022/02/15 02:54:51;;;;;;;18.70;11.00;;;1.40;94.30;;;;;;5008440;28;20216;-71
2022/02/15 02:57:17;;;;;;;15.40;9.63;;;1.40;94.30;;;;;;5009191;28;20264;-72
2022/02/15 02:59:48;;;;;;;15.87;11.07;;;1.50;94.40;;;;;;5013421;28;20181;-72
2022/02/15 03:02:15;;;;;;;24.57;12.43;;;1.50;94.40;;;;;;5010720;28;20300;-71
2022/02/15 03:04:41;;;;;;;23.43;12.00;;;1.50;94.50;;;;;;5014633;28;20209;-71
2022/02/15 03:07:07;;;;;;;29.17;13.57;;;1.60;94.70;;;;;;5006786;28;20652;-71
2022/02/15 03:09:33;;;;;;;26.30;11.80;;;1.60;94.50;;;;;;5011991;28;20223;-71
2022/02/15 03:11:58;;;;;;;24.63;11.50;;;1.60;94.50;;;;;;5013394;28;20192;-71
2022/02/15 03:14:24;;;;;;;18.00;11.03;;;1.70;94.60;;;;;;5017481;28;20176;-71
2022/02/15 03:16:50;;;;;;;21.30;12.00;;;1.70;94.50;;;;;;5011517;28;20847;-71
2022/02/15 03:19:16;;;;;;;19.10;10.27;;;1.70;94.50;;;;;;5016968;28;20188;-71
2022/02/15 03:21:42;;;;;;;28.00;11.70;;;1.80;94.40;;;;;;5010233;28;20189;-72
2022/02/15 03:24:08;;;;;;;21.37;11.30;;;1.80;94.10;;;;;;5011249;28;20243;-72
2022/02/15 03:26:34;;;;;;;22.80;11.73;;;1.90;94.10;;;;;;5008675;28;20181;-71
2022/02/15 03:28:59;;;;;;;20.00;11.43;;;1.90;94.70;;;;;;5017128;28;20192;-73
2022/02/15 03:31:26;;;;;;;17.90;10.77;;;1.90;94.80;;;;;;5011421;28;20658;-72
2022/02/15 03:33:52;;;;;;;20.83;10.83;;;1.90;94.90;;;;;;5013446;28;20189;-72
2022/02/15 03:36:18;;;;;;;21.13;11.03;;;1.90;95.00;;;;;;5004464;28;20267;-72
2022/02/15 03:38:45;;;;;;;24.80;12.07;;;1.90;95.00;;;;;;5005467;28;20230;-73
2022/02/15 03:43:56;;;;;;;22.50;10.33;;;2.00;95.00;;;;;;5007153;28;20277;-72
2022/02/15 03:46:22;;;;;;;20.37;11.40;;;2.00;94.90;;;;;;5006352;28;20260;-71
2022/02/15 03:48:48;;;;;;;22.53;12.10;;;2.00;94.80;;;;;;5011431;28;20181;-70
2022/02/15 03:51:14;;;;;;;20.20;10.80;;;2.00;95.10;;;;;;5005327;28;20192;-70
2022/02/15 03:53:40;;;;;;;23.77;10.17;;;2.00;95.00;;;;;;5004424;28;20192;-72
2022/02/15 03:56:06;;;;;;;21.07;10.57;;;2.00;94.80;;;;;;5015389;28;20193;-71
2022/02/15 03:58:32;;;;;;;20.17;10.53;;;2.00;95.00;;;;;;5011938;28;20203;-71
2022/02/15 04:00:58;;;;;;;21.60;10.40;;;2.00;95.00;;;;;;5006050;28;20185;-71
2022/02/15 04:03:23;;;;;;;23.47;12.20;;;2.00;95.00;;;;;;5009818;28;20991;-71
2022/02/15 04:05:49;;;;;;;27.10;13.63;;;2.00;94.90;;;;;;5011197;28;20185;-71
2022/02/15 04:08:15;;;;;;;30.20;13.00;;;2.00;94.90;;;;;;5007286;28;20231;-72
2022/02/15 04:10:41;;;;;;;25.97;13.30;;;2.00;95.00;;;;;;5009331;28;20181;-72
2022/02/15 04:13:06;;;;;;;18.30;11.03;;;1.90;95.00;;;;;;5015641;28;20199;-72
2022/02/15 04:15:32;;;;;;;24.73;12.57;;;1.90;95.10;;;;;;5016768;28;20263;-72
2022/02/15 04:17:58;;;;;;;27.50;12.23;;;1.90;95.40;;;;;;5006192;28;20195;-71
2022/02/15 04:20:24;;;;;;;24.30;12.90;;;1.80;95.30;;;;;;5009992;28;20182;-72
2022/02/15 04:22:49;;;;;;;22.33;11.87;;;1.80;95.50;;;;;;5010748;28;20255;-72
2022/02/15 04:25:16;;;;;;;23.17;11.43;;;1.80;95.70;;;;;;5012091;28;20187;-71
2022/02/15 04:27:42;;;;;;;19.67;10.33;;;1.80;95.70;;;;;;5010390;28;20635;-72
2022/02/15 04:30:09;;;;;;;22.47;10.70;;;1.80;95.80;;;;;;5012808;28;20224;-73
2022/02/15 04:32:35;;;;;;;24.77;11.50;;;1.80;95.50;;;;;;5006500;28;20227;-72
2022/02/15 04:35:01;;;;;;;28.47;12.20;;;1.80;95.80;;;;;;5014709;28;21808;-73
2022/02/15 04:37:26;;;;;;;23.73;10.77;;;1.80;95.70;;;;;;5008788;28;20193;-72
2022/02/15 04:39:52;;;;;;;23.97;10.97;;;1.80;95.50;;;;;;5007626;28;20212;-72
2022/02/15 04:42:18;;;;;;;23.27;10.87;;;1.80;95.50;;;;;;5009692;28;20217;-72
2022/02/15 04:44:44;;;;;;;29.23;11.10;;;1.80;95.40;;;;;;5009704;28;20188;-73
2022/02/15 04:47:10;;;;;;;21.20;10.67;;;1.80;95.30;;;;;;5012765;28;20235;-73
2022/02/15 04:49:37;;;;;;;22.30;9.83;;;1.80;95.20;;;;;;5017688;28;20217;-73
2022/02/15 04:52:03;;;;;;;22.77;11.20;;;1.80;95.10;;;;;;5006139;28;20185;-74
2022/02/15 04:54:29;;;;;;;26.90;11.30;;;1.80;95.00;;;;;;5006863;28;20181;-74
2022/02/15 04:56:55;;;;;;;24.17;12.73;;;1.80;95.00;;;;;;5008162;28;20180;-74
2022/02/15 04:59:21;;;;;;;26.67;12.37;;;1.70;94.90;;;;;;5011701;28;20655;-72
2022/02/15 05:01:47;;;;;;;22.07;11.30;;;1.70;94.90;;;;;;5009470;28;20244;-72
2022/02/15 05:07:01;;;;;;;20.53;11.30;;;1.70;95.00;;;;;;5008177;28;20347;-71
2022/02/15 05:09:27;;;;;;;29.27;13.03;;;1.70;95.00;;;;;;5009185;28;20181;-73
2022/02/15 05:11:54;;;;;;;25.87;13.37;;;1.60;95.20;;;;;;5010707;28;20187;-73
2022/02/15 05:14:20;;;;;;;24.73;12.00;;;1.60;95.70;;;;;;5014215;28;20617;-72
2022/02/15 05:16:46;;;;;;;31.60;12.17;;;1.60;95.80;;;;;;5010609;28;20187;-72
2022/02/15 05:19:12;;;;;;;22.33;10.93;;;1.60;95.90;;;;;;5007740;28;20321;-72
2022/02/15 05:21:38;;;;;;;29.40;11.77;;;1.60;96.00;;;;;;5004058;28;20725;-72
2022/02/15 05:24:05;;;;;;;23.63;12.07;;;1.50;96.50;;;;;;5009744;28;20216;-71
2022/02/15 05:26:30;;;;;;;29.63;12.57;;;1.50;96.30;;;;;;5003762;28;20184;-72
2022/02/15 05:28:56;;;;;;;25.93;12.03;;;1.50;96.40;;;;;;5010643;28;20195;-72
2022/02/15 05:31:22;;;;;;;25.20;12.60;;;1.50;96.30;;;;;;5007596;28;20185;-72
2022/02/15 05:33:48;;;;;;;23.23;11.80;;;1.60;96.30;;;;;;5010626;28;20195;-72
2022/02/15 05:36:15;;;;;;;25.23;11.97;;;1.50;96.40;;;;;;5015816;28;20188;-72
2022/02/15 05:38:42;;;;;;;21.30;10.73;;;1.50;96.30;;;;;;5014165;28;20188;-72
2022/02/15 05:41:08;;;;;;;26.53;11.60;;;1.60;96.30;;;;;;5010147;28;20584;-73
2022/02/15 05:43:33;;;;;;;27.00;12.13;;;1.60;96.20;;;;;;5014014;28;20216;-72
2022/02/15 05:45:59;;;;;;;26.97;12.70;;;1.50;96.30;;;;;;5010798;28;20180;-71
2022/02/15 05:48:25;;;;;;;22.93;11.40;;;1.50;96.40;;;;;;5009293;28;20264;-71
2022/02/15 05:50:51;;;;;;;30.97;12.77;;;1.60;96.40;;;;;;5015701;28;20192;-71
2022/02/15 05:53:24;;;;;;;28.13;12.37;;;1.60;96.40;;;;;;5014923;28;20189;-72
2022/02/15 05:55:54;;;;;;;29.83;12.97;;;1.60;96.50;;;;;;5015928;28;20570;-73
2022/02/15 05:58:20;;;;;;;21.23;11.70;;;1.70;96.60;;;;;;5012052;28;20219;-71
2022/02/15 06:00:46;;;;;;;24.97;11.03;;;1.70;96.50;;;;;;5009940;28;20185;-71
2022/02/15 06:05:56;;;;;;;22.73;11.03;;;1.80;96.40;;;;;;5010327;28;20285;-73
2022/02/15 06:08:22;;;;;;;33.13;12.43;;;1.80;96.50;;;;;;5017102;28;20268;-73
2022/02/15 06:10:47;;;;;;;27.20;12.37;;;1.90;96.20;;;;;;5014426;28;20185;-73
2022/02/15 06:13:15;;;;;;;22.23;11.13;;;2.00;96.10;;;;;;5011026;28;20744;-72
2022/02/15 06:15:42;;;;;;;26.20;13.10;;;2.00;96.10;;;;;;5006535;28;20185;-73
2022/02/15 06:18:08;;;;;;;28.37;12.10;;;2.00;95.90;;;;;;5007110;28;20600;-73
2022/02/15 06:20:34;;;;;;;25.77;11.77;;;2.00;95.90;;;;;;5014717;28;20208;-72
2022/02/15 06:23:00;;;;;;;31.27;13.47;;;2.00;95.90;;;;;;5017064;28;20212;-71
2022/02/15 06:25:26;;;;;;;33.83;13.40;;;2.00;95.80;;;;;;5011388;28;20185;-73
2022/02/15 06:27:51;;;;;;;27.27;13.57;;;2.00;95.90;;;;;;5013007;28;21585;-73
2022/02/15 06:30:17;;;;;;;24.93;12.03;;;2.00;96.10;;;;;;5015511;28;20955;-73
2022/02/15 06:32:43;;;;;;;32.30;14.80;;;2.00;96.10;;;;;;5014369;28;20599;-74
2022/02/15 06:35:09;;;;;;;27.77;14.27;;;2.10;96.10;;;;;;5010050;28;20277;-74
2022/02/15 06:37:36;;;;;;;25.57;11.43;;;2.10;96.10;;;;;;5010851;28;20811;-73
2022/02/15 06:40:03;;;;;;;26.00;12.83;;;2.20;96.10;;;;;;5017393;28;20195;-73
2022/02/15 06:42:33;;;;;;;25.23;13.43;;;2.20;96.00;;;;;;5015579;28;20224;-72
2022/02/15 06:44:59;;;;;;;34.63;16.57;;;2.40;95.90;;;;;;5013697;28;20281;-73
2022/02/15 06:47:24;;;;;;;32.63;17.93;;;2.40;95.80;;;;;;5018755;28;20355;-74
2022/02/15 06:49:50;;;;;;;28.67;15.20;;;2.50;95.60;;;;;;5019555;28;20189;-74
2022/02/15 06:52:16;;;;;;;35.17;16.80;;;2.50;95.40;;;;;;5018606;28;20203;-74
2022/02/15 06:54:42;;;;;;;27.63;14.63;;;2.50;95.30;;;;;;5012437;28;21777;-74
2022/02/15 06:57:08;;;;;;;29.83;14.43;;;2.50;95.10;;;;;;5008743;28;20188;-74
2022/02/15 06:59:34;;;;;;;33.20;15.60;;;2.50;95.00;;;;;;5009195;28;20184;-76
2022/02/15 07:02:00;;;;;;;30.27;14.20;;;2.40;95.10;;;;;;5012576;28;20235;-78
2022/02/15 07:04:26;;;;;;;38.40;16.23;;;2.30;95.30;;;;;;5012278;28;20185;-75
2022/02/15 07:06:52;;;;;;;36.77;15.73;;;2.30;95.50;;;;;;5013459;28;20754;-74
2022/02/15 07:09:18;;;;;;;33.97;15.00;;;2.30;95.30;;;;;;5011907;28;20268;-77
2022/02/15 07:11:44;;;;;;;29.60;14.73;;;2.30;95.40;;;;;;5008176;28;20192;-76
2022/02/15 07:14:10;;;;;;;30.20;13.70;;;2.30;95.40;;;;;;5010888;28;20632;-72
2022/02/15 07:16:36;;;;;;;32.53;14.00;;;2.30;96.00;;;;;;5013539;28;20187;-71
2022/02/15 07:19:03;;;;;;;31.23;15.30;;;2.40;96.10;;;;;;5007140;28;20236;-71
2022/02/15 07:21:33;;;;;;;30.97;14.73;;;2.60;96.00;;;;;;5009246;28;20571;-71
2022/02/15 07:23:58;;;;;;;24.53;14.03;;;2.80;95.70;;;;;;5012725;28;20220;-71
2022/02/15 07:26:24;;;;;;;35.00;15.23;;;2.90;95.50;;;;;;5008706;28;20640;-71
2022/02/15 07:28:50;;;;;;;24.17;12.63;;;3.00;95.30;;;;;;5011473;28;20295;-71
2022/02/15 07:31:16;;;;;;;24.10;13.63;;;3.20;95.00;;;;;;5011957;28;20184;-71
2022/02/15 07:33:42;;;;;;;25.53;14.20;;;3.40;94.80;;;;;;5015410;28;20666;-71
2022/02/15 07:36:07;;;;;;;34.13;15.67;;;3.60;94.30;;;;;;5010164;28;20271;-70
2022/02/15 07:38:33;;;;;;;30.90;16.17;;;3.90;94.10;;;;;;5004794;28;20788;-70
2022/02/15 07:40:59;;;;;;;34.70;17.23;;;4.20;93.90;;;;;;5005818;28;20185;-71
2022/02/15 07:43:27;;;;;;;34.97;16.07;;;4.30;93.00;;;;;;5010633;28;20304;-70
2022/02/15 07:45:53;;;;;;;35.10;17.00;;;4.50;91.70;;;;;;5006974;28;20185;-70
2022/02/15 07:48:19;;;;;;;36.20;18.50;;;4.60;91.50;;;;;;5015828;28;20836;-70
2022/02/15 07:50:45;;;;;;;36.83;16.47;;;4.80;91.40;;;;;;5011870;28;20245;-71
2022/02/15 07:53:11;;;;;;;36.63;16.87;;;5.20;91.90;;;;;;5005500;28;20185;-72
2022/02/15 07:55:37;;;;;;;33.60;17.10;;;5.70;92.70;;;;;;5011015;28;20189;-72
2022/02/15 07:58:04;;;;;;;36.77;18.00;;;6.10;91.50;;;;;;5012701;28;20189;-72
2022/02/15 08:00:30;;;;;;;38.63;18.67;;;6.40;88.50;;;;;;5011891;28;20247;-72
2022/02/15 08:02:56;;;;;;;35.10;18.60;;;6.70;88.20;;;;;;5017119;28;20200;-73
2022/02/15 08:05:23;;;;;;;37.90;18.13;;;7.10;86.60;;;;;;5017165;28;20184;-72
2022/02/15 08:07:54;;;;;;;34.17;18.00;;;7.40;84.80;;;;;;5013931;28;20216;-72
2022/02/15 08:10:22;;;;;;;34.80;18.63;;;7.50;83.90;;;;;;5007069;28;20195;-72
2022/02/15 08:12:55;;;;;;;37.30;18.47;;;7.60;83.50;;;;;;5011973;28;20185;-72
2022/02/15 08:15:28;;;;;;;38.20;18.53;;;7.80;83.00;;;;;;5009657;28;20189;-72
2022/02/15 08:17:54;;;;;;;33.73;17.50;;;8.10;82.50;;;;;;5006858;28;20189;-72
2022/02/15 08:20:20;;;;;;;32.60;18.07;;;8.30;81.40;;;;;;5015051;28;20181;-72
2022/02/15 08:22:46;;;;;;;39.83;18.00;;;8.50;80.70;;;;;;5013213;28;20263;-72
2022/02/15 08:25:12;;;;;;;29.90;16.03;;;8.80;80.10;;;;;;5005244;28;20186;-72
2022/02/15 08:27:37;;;;;;;29.17;16.37;;;9.20;80.40;;;;;;5008933;28;20702;-72
2022/02/15 08:30:04;;;;;;;28.43;15.87;;;9.80;80.20;;;;;;5006858;28;20616;-72
2022/02/15 08:32:30;;;;;;;27.77;16.00;;;10.20;79.30;;;;;;5005519;28;21188;-72
2022/02/15 08:34:55;;;;;;;28.80;16.20;;;10.80;77.40;;;;;;5010624;28;20276;-73
2022/02/15 08:37:21;;;;;;;28.47;16.47;;;11.60;79.50;;;;;;5011229;28;20231;-72
2022/02/15 08:39:47;;;;;;;30.37;17.77;;;12.40;77.70;;;;;;5010109;28;20188;-74
2022/02/15 08:42:13;;;;;;;34.67;18.50;;;13.30;75.30;;;;;;5009817;28;20247;-72
2022/02/15 08:44:39;;;;;;;30.58;18.45;;;14.10;74.00;;;;;;5011975;28;20258;-72
2022/02/15 08:47:06;;;;;;;28.92;16.75;;;14.70;70.80;;;;;;5009653;28;20215;-73
2022/02/15 08:49:36;;;;;;;25.10;16.15;;;15.30;69.90;;;;;;5014027;28;20199;-72
2022/02/15 08:52:04;;;;;;;33.95;20.13;;;16.00;67.30;;;;;;5010650;28;20181;-73
2022/02/15 08:54:30;;;;;;;37.53;21.10;;;16.40;66.30;;;;;;4999684;28;20187;-70
2022/02/15 08:56:56;;;;;;;35.65;21.83;;;16.90;66.40;;;;;;5009199;28;20575;-71
2022/02/15 08:59:22;;;;;;;43.55;23.77;;;17.50;65.50;;;;;;5014810;28;20183;-71
2022/02/15 09:01:48;;;;;;;44.40;24.42;;;18.10;64.10;;;;;;5007433;28;20193;-71
2022/02/15 09:04:15;;;;;;;42.85;25.20;;;18.60;63.30;;;;;;5007945;28;21066;-71
2022/02/15 09:06:41;;;;;;;40.63;25.10;;;19.00;61.70;;;;;;5006451;28;20215;-71
2022/02/15 09:09:09;;;;;;;39.75;23.35;;;19.50;61.00;;;;;;5008380;28;20220;-71
2022/02/15 09:11:36;;;;;;;38.33;24.88;;;19.90;59.80;;;;;;5010460;28;20784;-72
2022/02/15 09:14:02;;;;;;;42.00;25.08;;;20.40;58.90;;;;;;5009793;28;20184;-72
2022/02/15 09:16:27;;;;;;;36.42;24.80;;;20.90;58.20;;;;;;5007342;28;20207;-71
2022/02/15 09:18:53;;;;;;;44.95;25.67;;;21.30;57.20;;;;;;5013286;28;20239;-70
2022/02/15 09:21:19;;;;;;;43.90;25.90;;;21.70;56.80;;;;;;5013065;28;20176;-71
2022/02/15 09:23:44;;;;;;;39.67;25.92;;;22.10;53.90;;;;;;5011855;28;20247;-71
2022/02/15 09:26:10;;;;;;;42.20;25.30;;;22.40;55.20;;;;;;5003139;28;20184;-71
2022/02/15 09:28:36;;;;;;;36.80;24.95;;;22.50;53.40;;;;;;5010538;28;20254;-72
2022/02/15 09:31:02;;;;;;;49.05;27.42;;;22.60;53.30;;;;;;5007789;28;20188;-71
2022/02/15 09:33:28;;;;;;;40.78;26.08;;;22.70;54.10;;;;;;5007408;28;20188;-73
2022/02/15 09:35:54;;;;;;;42.33;26.83;;;23.00;53.70;;;;;;5009621;28;20188;-72
2022/02/15 09:38:20;;;;;;;37.90;21.90;;;23.30;52.40;;;;;;5006355;28;20197;-71
2022/02/15 09:40:49;;;;;;;32.35;20.42;;;23.50;51.00;;;;;;5006014;28;20720;-71
2022/02/15 09:43:16;;;;;;;40.22;24.63;;;23.10;49.90;;;;;;5008408;28;21165;-71
2022/02/15 09:45:46;;;;;;;41.13;23.00;;;22.90;51.70;;;;;;5001651;28;20204;-72
2022/02/15 09:48:13;;;;;;;35.88;22.80;;;23.00;52.60;;;;;;5008056;28;20296;-72
2022/02/15 09:50:40;;;;;;;47.40;23.80;;;23.10;51.00;;;;;;5002877;28;20197;-72
2022/02/15 09:53:06;;;;;;;34.70;21.52;;;22.80;50.30;;;;;;5002686;28;20193;-72
2022/02/15 09:55:33;;;;;;;39.42;21.98;;;22.60;50.50;;;;;;5008099;28;20268;-71
2022/02/15 09:57:59;;;;;;;34.33;21.40;;;22.50;51.50;;;;;;5007671;28;20227;-71
2022/02/15 10:00:24;;;;;;;39.60;21.25;;;22.80;52.30;;;;;;5007826;28;20189;-72
2022/02/15 10:02:51;;;;;;;39.63;22.20;;;23.20;51.60;;;;;;5001797;28;20797;-72
2022/02/15 10:05:18;;;;;;;42.85;21.92;;;23.60;51.00;;;;;;5005192;28;20251;-72
2022/02/15 10:07:56;;;;;;;38.72;21.88;;;24.00;50.80;;;;;;5004866;28;21000;-72
2022/02/15 10:10:29;;;;;;;35.40;21.45;;;24.40;50.00;;;;;;5002564;28;20259;-72
2022/02/15 10:13:04;;;;;;;31.15;19.80;;;24.80;49.50;;;;;;5004008;28;20193;-73
2022/02/15 10:15:34;;;;;;;31.33;20.05;;;25.20;48.90;;;;;;5006563;28;20196;-72
2022/02/15 10:18:10;;;;;;;28.30;18.42;;;25.50;49.10;;;;;;5005185;28;20505;-72
2022/02/15 10:20:37;;;;;;;30.00;16.90;;;25.70;47.80;;;;;;5013860;28;20253;-71
2022/02/15 10:23:24;;;;;;;26.67;16.45;;;25.60;48.00;;;;;;5013000;28;20212;-71
2022/02/15 10:25:50;;;;;;;26.88;16.63;;;25.80;47.00;;;;;;5008793;28;20190;-72
2022/02/15 10:28:17;;;;;;;30.23;17.85;;;26.10;48.40;;;;;;5012911;28;20207;-71
2022/02/15 10:31:07;;;;;;;31.55;17.67;;;26.40;47.80;;;;;;5013373;28;20215;-72
2022/02/15 10:33:40;;;;;;;28.23;17.92;;;26.70;47.20;;;;;;5010576;28;20810;-72
2022/02/15 10:36:05;;;;;;;21.90;16.65;;;26.80;46.10;;;;;;5009855;28;20213;-72
2022/02/15 10:38:40;;;;;;;21.95;16.88;;;26.90;47.10;;;;;;5009810;28;20650;-72
2022/02/15 10:41:11;;;;;;;25.52;17.55;;;26.50;44.70;;;;;;5011254;28;20193;-72
2022/02/15 10:43:49;;;;;;;22.25;15.65;;;25.40;46.80;;;;;;5013066;28;20244;-72
2022/02/15 10:46:18;;;;;;;25.60;16.17;;;25.00;47.50;;;;;;5005002;28;20185;-71
2022/02/15 10:48:45;;;;;;;26.80;15.77;;;24.60;46.70;;;;;;5010440;28;20270;-72
2022/02/15 10:51:12;;;;;;;22.75;15.88;;;24.50;48.90;;;;;;5008955;28;20219;-72
2022/02/15 10:53:38;;;;;;;22.45;14.80;;;24.50;47.10;;;;;;5003437;28;20196;-72
2022/02/15 10:56:05;;;;;;;22.42;15.55;;;24.90;48.90;;;;;;5007549;28;20222;-72
2022/02/15 10:58:32;;;;;;;23.58;16.05;;;25.30;46.80;;;;;;5014658;28;20592;-72
2022/02/15 11:01:03;;;;;;;32.03;17.60;;;25.70;47.70;;;;;;5010615;28;20184;-72
2022/02/15 11:03:34;;;;;;;28.45;15.63;;;26.20;47.10;;;;;;5008946;28;20234;-72
2022/02/15 11:06:01;;;;;;;22.02;14.85;;;26.50;46.30;;;;;;5010666;28;20925;-71
2022/02/15 11:08:28;;;;;;;23.85;14.88;;;26.80;45.70;;;;;;5012041;28;20193;-71
2022/02/15 11:11:13;;;;;;;22.42;15.38;;;27.20;44.80;;;;;;5005894;28;20269;-71
2022/02/15 11:13:40;;;;;;;19.15;14.60;;;27.60;45.00;;;;;;5009285;28;20682;-72
2022/02/15 11:16:11;;;;;;;23.10;14.45;;;27.70;45.10;;;;;;5008758;28;20276;-71
2022/02/15 11:18:38;;;;;;;18.50;13.88;;;27.80;44.00;;;;;;5007828;28;20698;-71
2022/02/15 11:21:06;;;;;;;22.42;14.73;;;27.90;45.20;;;;;;5011121;28;20177;-72
2022/02/15 11:23:37;;;;;;;21.38;14.05;;;28.10;43.40;;;;;;5012722;28;21014;-71
2022/02/15 11:26:05;;;;;;;18.40;12.77;;;28.10;45.60;;;;;;5009002;28;20204;-72
2022/02/15 11:28:31;;;;;;;20.20;13.60;;;28.30;44.60;;;;;;5007858;28;20185;-70
2022/02/15 11:31:02;;;;;;;17.50;13.20;;;28.30;43.50;;;;;;5009130;28;20180;-72
2022/02/15 11:33:29;;;;;;;16.85;12.45;;;27.70;43.40;;;;;;5014658;28;20247;-71
2022/02/15 11:36:03;;;;;;;17.42;12.40;;;27.30;44.40;;;;;;5006905;28;20220;-71
2022/02/15 11:38:29;;;;;;;15.63;11.48;;;27.20;45.20;;;;;;5005544;28;20197;-72
2022/02/15 11:41:06;;;;;;;19.00;12.32;;;27.40;43.90;;;;;;5009864;28;20196;-71
2022/02/15 11:43:33;;;;;;;19.25;13.00;;;27.40;44.30;;;;;;5006493;28;20219;-75
2022/02/15 11:46:00;;;;;;;18.17;12.70;;;27.30;44.10;;;;;;5006807;28;20181;-72
2022/02/15 11:48:42;;;;;;;12.85;11.48;;;27.00;43.20;;;;;;5008819;28;20254;-73
2022/02/15 11:51:23;;;;;;;13.18;10.63;;;26.80;44.50;;;;;;5008473;28;20181;-73
2022/02/15 11:53:55;;;;;;;13.15;10.20;;;26.90;43.90;;;;;;5006384;28;20208;-73
2022/02/15 11:56:21;;;;;;;12.90;9.90;;;26.80;44.30;;;;;;5013810;28;20196;-73
2022/02/15 11:58:51;;;;;;;13.57;10.23;;;26.70;43.70;;;;;;5011093;28;20188;-72
2022/02/15 12:01:30;;;;;;;11.35;10.18;;;26.80;44.10;;;;;;5016538;28;20193;-72
2022/02/15 12:03:58;;;;;;;19.58;10.60;;;26.90;43.60;;;;;;5011337;28;20900;-72
2022/02/15 12:06:40;;;;;;;15.48;11.32;;;26.80;42.80;;;;;;5006989;28;20211;-72
2022/02/15 12:09:09;;;;;;;13.55;10.50;;;26.50;42.90;;;;;;5013694;28;20710;-72
2022/02/15 12:11:39;;;;;;;15.43;11.13;;;25.80;43.60;;;;;;5015812;28;20567;-73
2022/02/15 12:14:11;;;;;;;13.50;10.88;;;25.00;46.20;;;;;;5007616;28;20744;-73
2022/02/15 12:16:57;;;;;;;13.60;10.43;;;24.90;45.10;;;;;;5010426;28;20220;-73
2022/02/15 12:19:31;;;;;;;13.43;10.88;;;24.70;44.60;;;;;;5009206;28;20180;-73
2022/02/15 12:22:00;;;;;;;11.45;9.98;;;24.60;45.70;;;;;;5012719;28;20196;-72
2022/02/15 12:24:28;;;;;;;18.98;10.38;;;24.70;46.80;;;;;;5017293;28;20275;-72
2022/02/15 12:26:56;;;;;;;10.45;8.88;;;25.00;46.00;;;;;;5008321;28;20204;-73
2022/02/15 12:29:22;;;;;;;16.75;9.88;;;25.40;45.70;;;;;;5015254;28;20228;-72
2022/02/15 12:32:06;;;;;;;15.20;10.85;;;25.20;44.20;;;;;;5009623;28;20212;-73
2022/02/15 12:34:32;;;;;;;13.55;9.93;;;24.90;45.00;;;;;;5008582;28;20524;-73
2022/02/15 12:36:59;;;;;;;14.52;9.75;;;24.80;46.50;;;;;;5011882;28;20187;-73
2022/02/15 12:39:36;;;;;;;13.07;9.70;;;24.70;45.40;;;;;;5007162;28;20188;-73
2022/02/15 12:42:12;;;;;;;12.10;9.70;;;24.40;44.30;;;;;;5015051;28;20223;-73
2022/02/15 12:44:39;;;;;;;12.48;9.38;;;23.90;45.40;;;;;;5007017;28;20577;-72